< < Back
Terminal Aerodrome Forecast


Current Version              Previous Versions:   1  2  3  4  5  6  7  8  9  

Terminal Aerodrome Forecast

709
FTUS42 KFFC 231000 AAC
TAFMCN
TAF AMD
KMCN 231047Z 2311/2406 28004KT 3SM BR SKC
     FM231200 33007KT P6SM FEW012
     FM240000 32005KT P6SM SKC=

Latest METAR

901
SAUS80 KWBC 230958
MTRMCN
METAR KMCN 230953Z AUTO 30005KT 3SM BR FEW005 13/13 A2986 RMK AO2 SLP109
T01330133 TSNO


USA.gov is the U.S. government's official web portal to all federal, state and local government web resources and services.